AMX408 MMMX-KJFK
Flight info
| Callsign | AMX408 |
|---|---|
| Flight time | 3h 44m |
| Altitude | 39000 |
| Route | IKLAN2A IKLAN UT141 TAM UM575 CLONN M575 TBD DCT HRV Q56 SJI/N0477F410 Q56 CATLN Q64 SAWED Q108 SIE CAMRN5 |
| Aircraft | B789/H-SDE1E2E3FGHIJ2J3J4J5M1RWXY/LB1D1 |
Departure
| Time | 2026-05-08 21:28 |
|---|---|
| Airport | Mexico City Benito Juárez International Airport (MMMX) |
Arrival
| Time | 2026-05-09 01:13 |
|---|---|
| Airport | John F. Kennedy International Airport (KJFK) |
| Time | Latitude | Longitude | Altitude | Speed | Heading |
|---|---|---|---|---|---|
| 2026-05-08 21:03 | 19.42240 | -99.08137 | 7307 ft | 0 kts | 118° |
| 2026-05-08 21:15 | 19.42249 | -99.08154 | 7326 ft | 4 kts | 125° |
| 2026-05-08 21:15 | 19.42264 | -99.08174 | 7326 ft | 1 kts | 129° |
| 2026-05-08 21:15 | 19.42278 | -99.08194 | 7308 ft | 3 kts | 133° |
| 2026-05-08 21:15 | 19.42294 | -99.08203 | 7308 ft | 3 kts | 182° |
| 2026-05-08 21:16 | 19.42321 | -99.08202 | 7307 ft | 4 kts | 181° |
| 2026-05-08 21:16 | 19.42348 | -99.08201 | 7307 ft | 2 kts | 180° |
| 2026-05-08 21:16 | 19.42372 | -99.08200 | 7307 ft | 4 kts | 191° |
| 2026-05-08 21:16 | 19.42397 | -99.08192 | 7307 ft | 4 kts | 212° |
| 2026-05-08 21:17 | 19.42415 | -99.08175 | 7307 ft | 2 kts | 239° |
| 2026-05-08 21:17 | 19.42416 | -99.08174 | 7307 ft | 14 kts | 239° |
| 2026-05-08 21:23 | 19.42414 | -99.08177 | 7317 ft | 2 kts | 239° |
| 2026-05-08 21:23 | 19.42403 | -99.08196 | 7307 ft | 2 kts | 239° |
| 2026-05-08 21:23 | 19.42395 | -99.08212 | 7307 ft | 1 kts | 242° |
| 2026-05-08 21:24 | 19.42394 | -99.08214 | 7307 ft | 0 kts | 244° |
| 2026-05-08 21:24 | 19.42390 | -99.08225 | 7307 ft | 4 kts | 251° |
| 2026-05-08 21:24 | 19.42392 | -99.08268 | 7307 ft | 6 kts | 287° |
| 2026-05-08 21:24 | 19.42403 | -99.08300 | 7307 ft | 3 kts | 291° |
| 2026-05-08 21:25 | 19.42409 | -99.08315 | 7307 ft | 3 kts | 291° |
| 2026-05-08 21:25 | 19.42427 | -99.08359 | 7307 ft | 10 kts | 294° |
| 2026-05-08 21:25 | 19.42463 | -99.08444 | 7307 ft | 15 kts | 294° |
| 2026-05-08 21:25 | 19.42506 | -99.08538 | 7307 ft | 12 kts | 311° |
| 2026-05-08 21:26 | 19.42564 | -99.08585 | 7308 ft | 12 kts | 326° |
| 2026-05-08 21:26 | 19.42626 | -99.08622 | 7308 ft | 9 kts | 333° |
| 2026-05-08 21:26 | 19.42670 | -99.08615 | 7308 ft | 5 kts | 38° |
| 2026-05-08 21:26 | 19.42690 | -99.08593 | 7308 ft | 3 kts | 56° |
| 2026-05-08 21:27 | 19.42701 | -99.08573 | 7308 ft | 9 kts | 58° |
| 2026-05-08 21:27 | 19.42821 | -99.08362 | 7307 ft | 61 kts | 59° |
| 2026-05-08 21:27 | 19.43131 | -99.07811 | 7309 ft | 113 kts | 59° |
| 2026-05-08 21:27 | 19.43616 | -99.06955 | 7308 ft | 157 kts | 59° |
| 2026-05-08 21:28 | 19.44228 | -99.05849 | 7375 ft | 185 kts | 63° |
| 2026-05-08 21:28 | 19.44880 | -99.04663 | 7766 ft | 190 kts | 57° |
| 2026-05-08 21:28 | 19.45646 | -99.03516 | 8678 ft | 192 kts | 50° |
| 2026-05-08 21:28 | 19.46421 | -99.02329 | 9198 ft | 201 kts | 56° |
| 2026-05-08 21:29 | 19.47203 | -99.00985 | 9391 ft | 227 kts | 59° |
| 2026-05-08 21:29 | 19.48077 | -98.99473 | 9690 ft | 253 kts | 59° |
| 2026-05-08 21:29 | 19.49058 | -98.97809 | 9973 ft | 280 kts | 59° |
| 2026-05-08 21:29 | 19.50020 | -98.95900 | 10216 ft | 308 kts | 61° |
| 2026-05-08 21:30 | 19.51208 | -98.93910 | 10422 ft | 324 kts | 57° |
| 2026-05-08 21:30 | 19.52403 | -98.91932 | 11063 ft | 317 kts | 59° |
| 2026-05-08 21:30 | 19.53603 | -98.89978 | 11801 ft | 315 kts | 48° |
| 2026-05-08 21:30 | 19.55117 | -98.88311 | 12561 ft | 316 kts | 48° |
| 2026-05-08 21:31 | 19.56567 | -98.86550 | 13341 ft | 318 kts | 49° |
| 2026-05-08 21:31 | 19.58049 | -98.84789 | 14119 ft | 322 kts | 47° |
| 2026-05-08 21:31 | 19.59584 | -98.83041 | 14852 ft | 326 kts | 46° |
| 2026-05-08 21:31 | 19.61120 | -98.81291 | 15580 ft | 331 kts | 47° |
| 2026-05-08 21:32 | 19.62689 | -98.79475 | 16322 ft | 338 kts | 48° |
| 2026-05-08 21:32 | 19.64333 | -98.77564 | 16465 ft | 365 kts | 48° |
| 2026-05-08 21:32 | 19.66117 | -98.75504 | 16550 ft | 390 kts | 48° |
| 2026-05-08 21:32 | 19.67959 | -98.73381 | 17320 ft | 392 kts | 48° |
| 2026-05-08 21:33 | 19.69958 | -98.71386 | 17992 ft | 398 kts | 33° |
| 2026-05-08 21:33 | 19.72453 | -98.70121 | 18651 ft | 402 kts | 14° |
| 2026-05-08 21:33 | 19.75226 | -98.69679 | 19222 ft | 406 kts | 3° |
| 2026-05-08 21:33 | 19.78057 | -98.69486 | 19808 ft | 410 kts | 2° |
| 2026-05-08 21:34 | 19.80922 | -98.69335 | 20410 ft | 414 kts | 2° |
| 2026-05-08 21:34 | 19.83817 | -98.69149 | 20988 ft | 419 kts | 2° |
| 2026-05-08 21:34 | 19.86738 | -98.68933 | 21564 ft | 423 kts | 2° |
| 2026-05-08 21:34 | 19.89694 | -98.68727 | 22121 ft | 428 kts | 2° |
| 2026-05-08 21:35 | 19.92679 | -98.68538 | 22670 ft | 431 kts | 1° |
| 2026-05-08 21:35 | 19.95661 | -98.68762 | 23215 ft | 431 kts | 346° |
| 2026-05-08 21:35 | 19.98506 | -98.69758 | 23750 ft | 431 kts | 332° |
| 2026-05-08 21:35 | 20.01057 | -98.71423 | 24260 ft | 431 kts | 321° |
| 2026-05-08 21:36 | 20.03503 | -98.73298 | 24705 ft | 435 kts | 322° |
| 2026-05-08 21:36 | 20.05954 | -98.75191 | 25177 ft | 437 kts | 321° |
| 2026-05-08 21:36 | 20.08416 | -98.77102 | 25651 ft | 439 kts | 321° |
| 2026-05-08 21:36 | 20.10899 | -98.79023 | 25914 ft | 446 kts | 321° |
| 2026-05-08 21:37 | 20.13424 | -98.80972 | 25913 ft | 448 kts | 321° |
| 2026-05-08 21:37 | 20.15934 | -98.82910 | 25939 ft | 445 kts | 321° |
| 2026-05-08 21:37 | 20.18419 | -98.84860 | 26471 ft | 443 kts | 321° |
| 2026-05-08 21:37 | 20.20924 | -98.86786 | 26909 ft | 447 kts | 326° |
| 2026-05-08 21:38 | 20.23738 | -98.88242 | 27368 ft | 453 kts | 338° |
| 2026-05-08 21:38 | 20.26810 | -98.89074 | 27772 ft | 460 kts | 350° |
| 2026-05-08 21:38 | 20.30021 | -98.89241 | 28146 ft | 466 kts | 358° |
| 2026-05-08 21:38 | 20.33277 | -98.89210 | 28514 ft | 469 kts | 358° |
| 2026-05-08 21:39 | 20.36551 | -98.89159 | 28887 ft | 472 kts | 358° |
| 2026-05-08 21:39 | 20.43143 | -98.88237 | 28934 ft | 484 kts | 18° |
| 2026-05-08 21:39 | 20.46212 | -98.86763 | 29243 ft | 485 kts | 30° |
| 2026-05-08 21:40 | 20.49028 | -98.84748 | 29542 ft | 491 kts | 34° |
| 2026-05-08 21:40 | 20.51805 | -98.82629 | 29921 ft | 492 kts | 34° |
| 2026-05-08 21:40 | 20.54548 | -98.80492 | 30169 ft | 496 kts | 34° |
| 2026-05-08 21:41 | 20.60208 | -98.76140 | 30749 ft | 501 kts | 34° |
| 2026-05-08 21:41 | 20.63004 | -98.73997 | 31038 ft | 502 kts | 34° |
| 2026-05-08 21:41 | 20.65845 | -98.71802 | 31302 ft | 505 kts | 34° |
| 2026-05-08 21:41 | 20.68695 | -98.69599 | 31553 ft | 507 kts | 34° |
| 2026-05-08 21:42 | 20.71563 | -98.67390 | 31825 ft | 509 kts | 34° |
| 2026-05-08 21:42 | 20.74440 | -98.65176 | 32055 ft | 512 kts | 34° |
| 2026-05-08 21:42 | 20.77325 | -98.62949 | 32359 ft | 512 kts | 34° |
| 2026-05-08 21:42 | 20.80222 | -98.60710 | 32606 ft | 514 kts | 34° |
| 2026-05-08 21:43 | 20.83124 | -98.58468 | 32855 ft | 516 kts | 34° |
| 2026-05-08 21:43 | 20.86041 | -98.56216 | 33067 ft | 518 kts | 34° |
| 2026-05-08 21:43 | 20.88963 | -98.53956 | 33319 ft | 519 kts | 34° |
| 2026-05-08 21:43 | 20.91897 | -98.51686 | 33534 ft | 521 kts | 34° |
| 2026-05-08 21:44 | 20.94844 | -98.49406 | 33734 ft | 523 kts | 34° |
| 2026-05-08 21:44 | 20.97798 | -98.47118 | 33931 ft | 525 kts | 34° |
| 2026-05-08 21:44 | 21.00759 | -98.44824 | 34107 ft | 527 kts | 34° |
| 2026-05-08 21:44 | 21.03725 | -98.42525 | 34319 ft | 527 kts | 34° |
| 2026-05-08 21:45 | 21.06692 | -98.40224 | 34578 ft | 526 kts | 34° |
| 2026-05-08 21:45 | 21.09655 | -98.37925 | 34835 ft | 526 kts | 34° |
| 2026-05-08 21:45 | 21.12623 | -98.35622 | 35077 ft | 526 kts | 34° |
| 2026-05-08 21:45 | 21.15586 | -98.33321 | 35322 ft | 526 kts | 34° |
| 2026-05-08 21:46 | 21.18544 | -98.31022 | 35558 ft | 526 kts | 34° |
| 2026-05-08 21:46 | 21.21502 | -98.28723 | 35791 ft | 525 kts | 34° |
| 2026-05-08 21:46 | 21.24437 | -98.26386 | 36011 ft | 526 kts | 39° |
| 2026-05-08 21:46 | 21.27105 | -98.23694 | 36196 ft | 528 kts | 43° |
| 2026-05-08 21:47 | 21.29730 | -98.20946 | 36413 ft | 528 kts | 43° |
| 2026-05-08 21:47 | 21.32357 | -98.18193 | 36647 ft | 527 kts | 43° |
| 2026-05-08 21:47 | 21.34987 | -98.15455 | 36871 ft | 527 kts | 42° |
| 2026-05-08 21:47 | 21.37621 | -98.12716 | 37087 ft | 527 kts | 42° |
| 2026-05-08 21:48 | 21.40246 | -98.09973 | 37299 ft | 527 kts | 43° |
| 2026-05-08 21:48 | 21.42877 | -98.07227 | 37515 ft | 527 kts | 40° |
| 2026-05-08 21:48 | 21.45759 | -98.04835 | 37722 ft | 522 kts | 27° |
| 2026-05-08 21:48 | 21.48972 | -98.03079 | 37900 ft | 517 kts | 16° |
| 2026-05-08 21:49 | 21.52397 | -98.01982 | 38066 ft | 511 kts | 6° |
| 2026-05-08 21:49 | 21.55885 | -98.01256 | 38191 ft | 512 kts | 7° |
| 2026-05-08 21:49 | 21.59382 | -98.00544 | 38380 ft | 511 kts | 6° |
| 2026-05-08 21:49 | 21.62831 | -97.99851 | 38559 ft | 511 kts | 6° |
| 2026-05-08 21:50 | 21.66324 | -97.99141 | 38713 ft | 511 kts | 7° |
| 2026-05-08 21:50 | 21.69833 | -97.98420 | 38713 ft | 515 kts | 7° |
| 2026-05-08 21:50 | 21.76909 | -97.96976 | 38772 ft | 520 kts | 6° |
| 2026-05-08 21:51 | 21.83993 | -97.95527 | 38775 ft | 517 kts | 6° |
| 2026-05-08 21:51 | 21.91051 | -97.94084 | 38776 ft | 516 kts | 6° |
| 2026-05-08 21:52 | 21.98101 | -97.92640 | 38780 ft | 515 kts | 6° |
| 2026-05-08 21:52 | 22.05146 | -97.91196 | 38791 ft | 515 kts | 6° |
| 2026-05-08 21:53 | 22.12193 | -97.89750 | 38800 ft | 516 kts | 6° |
| 2026-05-08 21:53 | 22.19247 | -97.88301 | 38811 ft | 517 kts | 6° |
| 2026-05-08 21:54 | 22.26308 | -97.86821 | 38817 ft | 518 kts | 11° |
| 2026-05-08 21:54 | 22.29730 | -97.85536 | 38829 ft | 524 kts | 23° |
| 2026-05-08 21:54 | 22.32926 | -97.83610 | 38832 ft | 528 kts | 29° |
| 2026-05-08 21:55 | 22.39153 | -97.79362 | 38812 ft | 530 kts | 30° |
| 2026-05-08 21:56 | 22.47448 | -97.73708 | 38806 ft | 530 kts | 29° |
| 2026-05-08 21:56 | 22.54740 | -97.68716 | 38802 ft | 531 kts | 30° |
| 2026-05-08 21:57 | 22.59927 | -97.65173 | 38800 ft | 531 kts | 29° |
| 2026-05-08 21:57 | 22.66168 | -97.60900 | 38801 ft | 531 kts | 30° |
| 2026-05-08 21:58 | 22.72410 | -97.56621 | 38804 ft | 531 kts | 29° |
| 2026-05-08 21:58 | 22.78658 | -97.52334 | 38799 ft | 531 kts | 30° |
| 2026-05-08 21:59 | 22.84900 | -97.48045 | 38799 ft | 531 kts | 30° |
| 2026-05-08 21:59 | 22.91132 | -97.43759 | 38791 ft | 529 kts | 30° |
| 2026-05-08 22:00 | 22.97342 | -97.39484 | 38796 ft | 529 kts | 29° |
| 2026-05-08 22:00 | 23.03562 | -97.35197 | 38798 ft | 531 kts | 30° |
| 2026-05-08 22:01 | 23.09801 | -97.30891 | 38803 ft | 532 kts | 30° |
| 2026-05-08 22:01 | 23.16031 | -97.26588 | 38810 ft | 529 kts | 29° |
| 2026-05-08 22:02 | 23.22249 | -97.22293 | 38807 ft | 531 kts | 29° |
| 2026-05-08 22:02 | 23.28482 | -97.17981 | 38811 ft | 531 kts | 29° |
| 2026-05-08 22:03 | 23.34720 | -97.13661 | 38814 ft | 531 kts | 29° |
| 2026-05-08 22:03 | 23.40913 | -97.09368 | 38813 ft | 531 kts | 29° |
| 2026-05-08 22:04 | 23.47188 | -97.05012 | 38816 ft | 532 kts | 29° |
| 2026-05-08 22:04 | 23.53429 | -97.00675 | 38812 ft | 532 kts | 29° |
| 2026-05-08 22:05 | 23.59638 | -96.96356 | 38814 ft | 533 kts | 29° |
| 2026-05-08 22:05 | 23.65896 | -96.91997 | 38818 ft | 534 kts | 29° |
| 2026-05-08 22:06 | 23.72160 | -96.87629 | 38819 ft | 534 kts | 29° |
| 2026-05-08 22:06 | 23.78415 | -96.83253 | 38819 ft | 534 kts | 29° |
| 2026-05-08 22:07 | 23.84670 | -96.78876 | 38819 ft | 534 kts | 29° |
| 2026-05-08 22:07 | 23.90916 | -96.74499 | 38822 ft | 533 kts | 29° |
| 2026-05-08 22:08 | 23.97166 | -96.70114 | 38821 ft | 534 kts | 29° |
| 2026-05-08 22:08 | 24.03420 | -96.65721 | 38822 ft | 534 kts | 29° |
| 2026-05-08 22:09 | 24.09672 | -96.61326 | 38822 ft | 534 kts | 29° |
| 2026-05-08 22:09 | 24.15922 | -96.56931 | 38825 ft | 533 kts | 29° |
| 2026-05-08 22:10 | 24.22165 | -96.52532 | 38825 ft | 534 kts | 29° |
| 2026-05-08 22:10 | 24.28408 | -96.48131 | 38825 ft | 534 kts | 29° |
| 2026-05-08 22:11 | 24.34646 | -96.43727 | 38827 ft | 533 kts | 29° |
| 2026-05-08 22:11 | 24.40885 | -96.39316 | 38829 ft | 533 kts | 29° |
| 2026-05-08 22:12 | 24.47123 | -96.34902 | 38832 ft | 534 kts | 29° |
| 2026-05-08 22:12 | 24.53357 | -96.30484 | 38827 ft | 534 kts | 29° |
| 2026-05-08 22:13 | 24.59601 | -96.26055 | 38830 ft | 534 kts | 29° |
| 2026-05-08 22:13 | 24.65842 | -96.21622 | 38818 ft | 534 kts | 29° |
| 2026-05-08 22:14 | 24.72082 | -96.17188 | 38822 ft | 534 kts | 29° |
| 2026-05-08 22:14 | 24.78326 | -96.12745 | 38822 ft | 534 kts | 29° |
| 2026-05-08 22:15 | 24.84566 | -96.08299 | 38830 ft | 534 kts | 29° |
| 2026-05-08 22:15 | 24.90804 | -96.03851 | 38836 ft | 534 kts | 29° |
| 2026-05-08 22:16 | 24.97040 | -95.99397 | 38838 ft | 534 kts | 29° |
| 2026-05-08 22:16 | 25.03233 | -95.94964 | 38840 ft | 534 kts | 29° |
| 2026-05-08 22:17 | 25.09512 | -95.90466 | 38837 ft | 535 kts | 28° |
| 2026-05-08 22:17 | 25.15710 | -95.86019 | 38839 ft | 536 kts | 28° |
| 2026-05-08 22:18 | 25.21963 | -95.81527 | 38839 ft | 536 kts | 28° |
| 2026-05-08 22:18 | 25.28210 | -95.77034 | 38838 ft | 536 kts | 28° |
| 2026-05-08 22:19 | 25.34454 | -95.72538 | 38841 ft | 536 kts | 28° |
| 2026-05-08 22:19 | 25.40704 | -95.68032 | 38844 ft | 536 kts | 28° |
| 2026-05-08 22:20 | 25.46952 | -95.63522 | 38845 ft | 536 kts | 28° |
| 2026-05-08 22:20 | 25.53202 | -95.59004 | 38839 ft | 537 kts | 28° |
| 2026-05-08 22:21 | 25.59450 | -95.54482 | 38844 ft | 537 kts | 28° |
| 2026-05-08 22:21 | 25.65379 | -95.49431 | 38860 ft | 543 kts | 41° |
| 2026-05-08 22:22 | 25.70743 | -95.43502 | 38844 ft | 545 kts | 41° |
| 2026-05-08 22:22 | 25.76114 | -95.37575 | 38847 ft | 545 kts | 41° |
| 2026-05-08 22:23 | 25.81484 | -95.31644 | 38848 ft | 545 kts | 41° |
| 2026-05-08 22:23 | 25.86847 | -95.25704 | 38854 ft | 544 kts | 41° |
| 2026-05-08 22:24 | 25.92206 | -95.19769 | 38854 ft | 543 kts | 41° |
| 2026-05-08 22:24 | 25.97551 | -95.13834 | 38853 ft | 543 kts | 41° |
| 2026-05-08 22:25 | 26.02891 | -95.07903 | 38858 ft | 543 kts | 41° |
| 2026-05-08 22:25 | 26.08194 | -95.02000 | 38853 ft | 543 kts | 41° |
| 2026-05-08 22:26 | 26.13536 | -94.96050 | 38859 ft | 543 kts | 41° |
| 2026-05-08 22:26 | 26.18873 | -94.90094 | 38860 ft | 543 kts | 41° |
| 2026-05-08 22:27 | 26.24211 | -94.84130 | 38856 ft | 543 kts | 41° |
| 2026-05-08 22:27 | 26.29542 | -94.78165 | 38858 ft | 543 kts | 41° |
| 2026-05-08 22:28 | 26.34871 | -94.72195 | 38861 ft | 543 kts | 41° |
| 2026-05-08 22:28 | 26.40199 | -94.66217 | 38861 ft | 543 kts | 41° |
| 2026-05-08 22:29 | 26.45527 | -94.60231 | 38863 ft | 544 kts | 41° |
| 2026-05-08 22:29 | 26.50856 | -94.54235 | 38866 ft | 544 kts | 41° |
| 2026-05-08 22:30 | 26.56185 | -94.48231 | 38860 ft | 544 kts | 41° |
| 2026-05-08 22:30 | 26.61513 | -94.42220 | 38865 ft | 544 kts | 41° |
| 2026-05-08 22:31 | 26.66834 | -94.36208 | 38868 ft | 544 kts | 41° |
| 2026-05-08 22:31 | 26.72156 | -94.30186 | 38860 ft | 545 kts | 41° |
| 2026-05-08 22:32 | 26.77481 | -94.24153 | 38865 ft | 545 kts | 41° |
| 2026-05-08 22:32 | 26.82798 | -94.18120 | 38869 ft | 544 kts | 41° |
| 2026-05-08 22:33 | 26.88113 | -94.12080 | 38870 ft | 544 kts | 41° |
| 2026-05-08 22:33 | 26.93418 | -94.06044 | 38869 ft | 543 kts | 41° |
| 2026-05-08 22:34 | 26.98723 | -94.00000 | 38869 ft | 544 kts | 41° |
| 2026-05-08 22:34 | 27.04025 | -93.93949 | 38878 ft | 544 kts | 41° |
| 2026-05-08 22:35 | 27.09292 | -93.87930 | 38870 ft | 544 kts | 41° |
| 2026-05-08 22:35 | 27.14591 | -93.81870 | 38872 ft | 543 kts | 41° |
| 2026-05-08 22:36 | 27.19911 | -93.75779 | 38868 ft | 550 kts | 40° |
| 2026-05-08 22:36 | 27.25266 | -93.69632 | 38873 ft | 551 kts | 40° |
| 2026-05-08 22:37 | 27.30625 | -93.63478 | 38875 ft | 551 kts | 40° |
| 2026-05-08 22:37 | 27.35998 | -93.57295 | 38876 ft | 552 kts | 40° |
| 2026-05-08 22:38 | 27.41365 | -93.51111 | 38879 ft | 553 kts | 40° |
| 2026-05-08 22:38 | 27.46737 | -93.44913 | 38877 ft | 553 kts | 40° |
| 2026-05-08 22:39 | 27.52113 | -93.38699 | 38887 ft | 554 kts | 40° |
| 2026-05-08 22:39 | 27.57490 | -93.32477 | 38887 ft | 554 kts | 40° |
| 2026-05-08 22:40 | 27.62869 | -93.26242 | 38880 ft | 555 kts | 40° |
| 2026-05-08 22:40 | 27.68249 | -93.19996 | 38885 ft | 555 kts | 40° |
| 2026-05-08 22:41 | 27.73632 | -93.13741 | 38885 ft | 556 kts | 40° |
| 2026-05-08 22:41 | 27.79019 | -93.07472 | 38884 ft | 556 kts | 40° |
| 2026-05-08 22:42 | 27.84408 | -93.01190 | 38891 ft | 557 kts | 40° |
| 2026-05-08 22:42 | 27.89795 | -92.94902 | 38886 ft | 557 kts | 40° |
| 2026-05-08 22:43 | 27.95184 | -92.88602 | 38893 ft | 557 kts | 40° |
| 2026-05-08 22:43 | 28.00572 | -92.82294 | 38890 ft | 558 kts | 40° |
| 2026-05-08 22:44 | 28.05047 | -92.77046 | 38850 ft | 558 kts | 40° |
| 2026-05-08 22:44 | 28.10369 | -92.70792 | 38879 ft | 547 kts | 40° |
| 2026-05-08 22:45 | 28.15646 | -92.64587 | 38887 ft | 548 kts | 40° |
| 2026-05-08 22:45 | 28.20936 | -92.58341 | 38888 ft | 549 kts | 40° |
| 2026-05-08 22:46 | 28.26232 | -92.52090 | 38895 ft | 550 kts | 40° |
| 2026-05-08 22:46 | 28.31521 | -92.45832 | 38900 ft | 550 kts | 40° |
| 2026-05-08 22:47 | 28.36812 | -92.39567 | 38898 ft | 549 kts | 40° |
| 2026-05-08 22:47 | 28.42100 | -92.33293 | 38897 ft | 550 kts | 40° |
| 2026-05-08 22:48 | 28.47381 | -92.27018 | 38906 ft | 550 kts | 40° |
| 2026-05-08 22:48 | 28.52664 | -92.20732 | 38902 ft | 549 kts | 40° |
| 2026-05-08 22:49 | 28.57900 | -92.14492 | 38902 ft | 549 kts | 40° |
| 2026-05-08 22:49 | 28.65815 | -92.05041 | 38908 ft | 550 kts | 40° |
| 2026-05-08 22:50 | 28.71090 | -91.98730 | 38910 ft | 550 kts | 40° |
| 2026-05-08 22:50 | 28.76364 | -91.92411 | 38909 ft | 550 kts | 40° |
| 2026-05-08 22:51 | 28.81634 | -91.86085 | 38908 ft | 551 kts | 40° |
| 2026-05-08 22:51 | 28.86919 | -91.79732 | 38913 ft | 551 kts | 40° |
| 2026-05-08 22:52 | 28.92195 | -91.73381 | 38912 ft | 552 kts | 40° |
| 2026-05-08 22:52 | 28.97476 | -91.67013 | 38917 ft | 552 kts | 40° |
| 2026-05-08 22:53 | 29.02758 | -91.60632 | 38920 ft | 553 kts | 40° |
| 2026-05-08 22:53 | 29.08039 | -91.54244 | 38926 ft | 553 kts | 40° |
| 2026-05-08 22:54 | 29.13319 | -91.47846 | 38928 ft | 553 kts | 40° |
| 2026-05-08 22:54 | 29.18604 | -91.41432 | 38935 ft | 554 kts | 41° |
| 2026-05-08 22:55 | 29.23884 | -91.35014 | 38942 ft | 553 kts | 41° |
| 2026-05-08 22:55 | 29.29162 | -91.28588 | 38948 ft | 554 kts | 41° |
| 2026-05-08 22:56 | 29.34439 | -91.22153 | 38954 ft | 554 kts | 41° |
| 2026-05-08 22:56 | 29.39711 | -91.15714 | 38960 ft | 554 kts | 41° |
| 2026-05-08 22:57 | 29.44983 | -91.09264 | 38965 ft | 554 kts | 41° |
| 2026-05-08 22:57 | 29.50256 | -91.02802 | 38975 ft | 555 kts | 41° |
| 2026-05-08 22:58 | 29.55488 | -90.96379 | 38978 ft | 555 kts | 41° |
| 2026-05-08 22:58 | 29.60755 | -90.89904 | 38980 ft | 554 kts | 41° |
| 2026-05-08 22:59 | 29.65584 | -90.82961 | 39001 ft | 565 kts | 58° |
| 2026-05-08 22:59 | 29.67245 | -90.78863 | 39000 ft | 571 kts | 70° |
| 2026-05-08 22:59 | 29.68365 | -90.74476 | 38991 ft | 572 kts | 73° |
| 2026-05-08 23:00 | 29.70371 | -90.65615 | 38990 ft | 572 kts | 75° |
| 2026-05-08 23:00 | 29.72377 | -90.56767 | 38983 ft | 572 kts | 74° |
| 2026-05-08 23:01 | 29.74382 | -90.47909 | 38978 ft | 571 kts | 75° |
| 2026-05-08 23:01 | 29.76368 | -90.39065 | 38976 ft | 570 kts | 74° |
| 2026-05-08 23:02 | 29.78354 | -90.30238 | 38975 ft | 570 kts | 75° |
| 2026-05-08 23:02 | 29.80327 | -90.21397 | 38984 ft | 570 kts | 75° |
| 2026-05-08 23:03 | 29.82301 | -90.12558 | 38989 ft | 570 kts | 75° |
| 2026-05-08 23:03 | 29.84264 | -90.03737 | 38992 ft | 569 kts | 72° |
| 2026-05-08 23:04 | 29.85635 | -89.99487 | 39014 ft | 565 kts | 59° |
| 2026-05-08 23:04 | 29.87584 | -89.95571 | 39006 ft | 562 kts | 54° |
| 2026-05-08 23:04 | 29.91739 | -89.87931 | 38986 ft | 563 kts | 54° |
| 2026-05-08 23:05 | 29.95886 | -89.80272 | 38972 ft | 564 kts | 54° |
| 2026-05-08 23:05 | 30.00008 | -89.72645 | 39102 ft | 563 kts | 54° |
| 2026-05-08 23:06 | 30.04149 | -89.64975 | 39300 ft | 563 kts | 54° |
| 2026-05-08 23:06 | 30.08280 | -89.57301 | 39496 ft | 564 kts | 54° |
| 2026-05-08 23:07 | 30.12418 | -89.49605 | 39685 ft | 564 kts | 54° |
| 2026-05-08 23:07 | 30.16559 | -89.41885 | 39868 ft | 565 kts | 54° |
| 2026-05-08 23:08 | 30.20698 | -89.34156 | 40066 ft | 565 kts | 54° |
| 2026-05-08 23:08 | 30.22765 | -89.30291 | 40171 ft | 565 kts | 54° |
| 2026-05-08 23:08 | 30.24831 | -89.26424 | 40262 ft | 565 kts | 54° |
| 2026-05-08 23:09 | 30.26898 | -89.22551 | 40364 ft | 565 kts | 54° |
| 2026-05-08 23:09 | 30.28961 | -89.18682 | 40460 ft | 565 kts | 54° |
| 2026-05-08 23:09 | 30.33087 | -89.10930 | 40642 ft | 567 kts | 54° |
| 2026-05-08 23:10 | 30.35152 | -89.07047 | 40745 ft | 567 kts | 54° |
| 2026-05-08 23:10 | 30.37214 | -89.03163 | 40842 ft | 566 kts | 54° |
| 2026-05-08 23:10 | 30.41330 | -88.95402 | 40965 ft | 566 kts | 54° |
| 2026-05-08 23:11 | 30.45454 | -88.87609 | 40969 ft | 566 kts | 54° |
| 2026-05-08 23:11 | 30.49557 | -88.79840 | 40971 ft | 565 kts | 54° |
| 2026-05-08 23:12 | 30.53660 | -88.72059 | 41003 ft | 566 kts | 54° |
| 2026-05-08 23:12 | 30.57757 | -88.64270 | 41005 ft | 566 kts | 54° |
| 2026-05-08 23:13 | 30.61851 | -88.56475 | 41014 ft | 566 kts | 54° |
| 2026-05-08 23:13 | 30.65948 | -88.48657 | 41014 ft | 566 kts | 54° |
| 2026-05-08 23:14 | 30.70037 | -88.40838 | 41024 ft | 567 kts | 54° |
| 2026-05-08 23:14 | 30.74469 | -88.33434 | 41043 ft | 557 kts | 42° |
| 2026-05-08 23:15 | 30.79593 | -88.26641 | 41019 ft | 559 kts | 43° |
| 2026-05-08 23:15 | 30.84710 | -88.19820 | 41030 ft | 560 kts | 43° |
| 2026-05-08 23:16 | 30.89833 | -88.12988 | 41039 ft | 560 kts | 43° |
| 2026-05-08 23:16 | 30.94955 | -88.06142 | 41052 ft | 561 kts | 43° |
| 2026-05-08 23:17 | 31.00074 | -87.99287 | 41054 ft | 561 kts | 43° |
| 2026-05-08 23:17 | 31.05193 | -87.92422 | 41054 ft | 561 kts | 43° |
| 2026-05-08 23:18 | 31.10310 | -87.85547 | 41049 ft | 561 kts | 43° |
| 2026-05-08 23:18 | 31.15426 | -87.78662 | 41045 ft | 562 kts | 43° |
| 2026-05-08 23:19 | 31.20540 | -87.71765 | 41041 ft | 562 kts | 43° |
| 2026-05-08 23:19 | 31.25661 | -87.64848 | 41046 ft | 562 kts | 43° |
| 2026-05-08 23:20 | 31.30747 | -87.57902 | 41012 ft | 567 kts | 48° |
| 2026-05-08 23:20 | 31.33001 | -87.54086 | 40909 ft | 571 kts | 51° |
| 2026-05-08 23:20 | 31.35220 | -87.50229 | 40798 ft | 572 kts | 51° |
| 2026-05-08 23:21 | 31.37443 | -87.46377 | 40691 ft | 570 kts | 50° |
| 2026-05-08 23:21 | 31.39666 | -87.42543 | 40636 ft | 569 kts | 50° |
| 2026-05-08 23:21 | 31.44092 | -87.34875 | 40491 ft | 569 kts | 51° |
| 2026-05-08 23:22 | 31.48520 | -87.27182 | 40366 ft | 570 kts | 51° |
| 2026-05-08 23:22 | 31.52954 | -87.19472 | 40226 ft | 570 kts | 51° |
| 2026-05-08 23:23 | 31.57378 | -87.11757 | 40103 ft | 571 kts | 51° |
| 2026-05-08 23:23 | 31.61804 | -87.04027 | 39962 ft | 571 kts | 51° |
| 2026-05-08 23:24 | 31.66230 | -86.96278 | 39811 ft | 572 kts | 51° |
| 2026-05-08 23:24 | 31.70659 | -86.88512 | 39658 ft | 573 kts | 51° |
| 2026-05-08 23:25 | 31.75085 | -86.80732 | 39527 ft | 573 kts | 51° |
| 2026-05-08 23:25 | 31.79510 | -86.72939 | 39420 ft | 573 kts | 51° |
| 2026-05-08 23:26 | 31.83934 | -86.65132 | 39296 ft | 574 kts | 51° |
| 2026-05-08 23:26 | 31.88328 | -86.57362 | 39177 ft | 575 kts | 51° |
| 2026-05-08 23:27 | 31.92754 | -86.49521 | 39044 ft | 575 kts | 51° |
| 2026-05-08 23:27 | 31.97181 | -86.41661 | 38993 ft | 576 kts | 51° |
| 2026-05-08 23:28 | 32.01640 | -86.33730 | 38997 ft | 578 kts | 51° |
| 2026-05-08 23:28 | 32.06040 | -86.25882 | 39017 ft | 578 kts | 51° |
| 2026-05-08 23:29 | 32.10470 | -86.17971 | 39119 ft | 579 kts | 52° |
| 2026-05-08 23:29 | 32.14892 | -86.10049 | 39025 ft | 576 kts | 52° |
| 2026-05-08 23:30 | 32.19296 | -86.02152 | 39028 ft | 576 kts | 52° |
| 2026-05-08 23:30 | 32.23694 | -85.94246 | 39032 ft | 576 kts | 52° |
| 2026-05-08 23:31 | 32.28092 | -85.86322 | 39028 ft | 576 kts | 52° |
| 2026-05-08 23:31 | 32.32484 | -85.78395 | 39030 ft | 576 kts | 52° |
| 2026-05-08 23:32 | 32.36870 | -85.70459 | 39031 ft | 576 kts | 52° |
| 2026-05-08 23:32 | 32.41253 | -85.62514 | 39045 ft | 576 kts | 52° |
| 2026-05-08 23:33 | 32.44886 | -85.55914 | 39047 ft | 576 kts | 52° |
| 2026-05-08 23:33 | 32.49257 | -85.47960 | 39059 ft | 576 kts | 52° |
| 2026-05-08 23:34 | 32.54332 | -85.38704 | 39059 ft | 577 kts | 52° |
| 2026-05-08 23:34 | 32.57992 | -85.32013 | 39060 ft | 577 kts | 52° |
| 2026-05-08 23:35 | 32.62340 | -85.24048 | 39058 ft | 577 kts | 52° |
| 2026-05-08 23:35 | 32.66555 | -85.16313 | 39044 ft | 577 kts | 52° |
| 2026-05-08 23:36 | 32.70895 | -85.08331 | 39050 ft | 577 kts | 52° |
| 2026-05-08 23:36 | 32.75183 | -85.00429 | 39065 ft | 576 kts | 52° |
| 2026-05-08 23:37 | 32.79459 | -84.92529 | 39073 ft | 577 kts | 52° |
| 2026-05-08 23:37 | 32.83747 | -84.84592 | 39074 ft | 577 kts | 52° |
| 2026-05-08 23:38 | 32.88026 | -84.76656 | 39073 ft | 578 kts | 52° |
| 2026-05-08 23:38 | 32.92330 | -84.68655 | 39059 ft | 579 kts | 52° |
| 2026-05-08 23:39 | 32.96629 | -84.60645 | 39047 ft | 579 kts | 52° |
| 2026-05-08 23:39 | 33.00936 | -84.52606 | 39033 ft | 579 kts | 52° |
| 2026-05-08 23:40 | 33.05234 | -84.44564 | 39060 ft | 580 kts | 52° |
| 2026-05-08 23:40 | 33.09545 | -84.36481 | 39045 ft | 580 kts | 52° |
| 2026-05-08 23:41 | 33.13849 | -84.28391 | 39050 ft | 580 kts | 52° |
| 2026-05-08 23:41 | 33.18150 | -84.20291 | 39044 ft | 581 kts | 52° |
| 2026-05-08 23:42 | 33.22441 | -84.12192 | 39048 ft | 581 kts | 52° |
| 2026-05-08 23:42 | 33.26716 | -84.04106 | 39044 ft | 581 kts | 52° |
| 2026-05-08 23:43 | 33.30978 | -83.96025 | 39037 ft | 582 kts | 52° |
| 2026-05-08 23:43 | 33.35265 | -83.87879 | 39032 ft | 582 kts | 52° |
| 2026-05-08 23:44 | 33.39526 | -83.79766 | 39040 ft | 582 kts | 52° |
| 2026-05-08 23:44 | 33.43796 | -83.71615 | 39036 ft | 582 kts | 52° |
| 2026-05-08 23:45 | 33.48080 | -83.63421 | 39034 ft | 582 kts | 52° |
| 2026-05-08 23:45 | 33.52366 | -83.55204 | 39031 ft | 583 kts | 52° |
| 2026-05-08 23:46 | 33.56617 | -83.47036 | 39035 ft | 583 kts | 52° |
| 2026-05-08 23:46 | 33.60931 | -83.38729 | 39043 ft | 584 kts | 52° |
| 2026-05-08 23:47 | 33.65210 | -83.30468 | 39054 ft | 584 kts | 52° |
| 2026-05-08 23:47 | 33.69463 | -83.22241 | 39054 ft | 584 kts | 52° |
| 2026-05-08 23:48 | 33.73736 | -83.13956 | 39051 ft | 585 kts | 52° |
| 2026-05-08 23:48 | 33.77970 | -83.05727 | 39045 ft | 585 kts | 52° |
| 2026-05-08 23:49 | 33.82247 | -82.97395 | 39037 ft | 586 kts | 52° |
| 2026-05-08 23:49 | 33.86443 | -82.89205 | 39035 ft | 586 kts | 52° |
| 2026-05-08 23:50 | 33.90819 | -82.80819 | 39037 ft | 586 kts | 51° |
| 2026-05-08 23:50 | 33.95216 | -82.72611 | 39032 ft | 588 kts | 52° |
| 2026-05-08 23:51 | 33.99563 | -82.64287 | 39036 ft | 588 kts | 51° |
| 2026-05-08 23:51 | 34.03965 | -82.55984 | 39032 ft | 589 kts | 52° |
| 2026-05-08 23:52 | 34.08330 | -82.47630 | 39034 ft | 590 kts | 51° |
| 2026-05-08 23:52 | 34.12728 | -82.39262 | 39048 ft | 591 kts | 51° |
| 2026-05-08 23:53 | 34.17109 | -82.30862 | 39051 ft | 591 kts | 52° |
| 2026-05-08 23:53 | 34.21495 | -82.22461 | 39056 ft | 591 kts | 51° |
| 2026-05-08 23:54 | 34.25840 | -82.14102 | 39056 ft | 592 kts | 52° |
| 2026-05-08 23:55 | 34.32235 | -82.01315 | 39061 ft | 593 kts | 52° |
| 2026-05-08 23:55 | 34.36577 | -81.92742 | 39043 ft | 595 kts | 52° |
| 2026-05-08 23:56 | 34.40823 | -81.84212 | 39047 ft | 596 kts | 52° |
| 2026-05-08 23:56 | 34.45121 | -81.75637 | 39048 ft | 596 kts | 52° |
| 2026-05-08 23:57 | 34.49399 | -81.67033 | 39055 ft | 596 kts | 53° |
| 2026-05-08 23:57 | 34.53678 | -81.58434 | 39050 ft | 596 kts | 52° |
| 2026-05-08 23:58 | 34.57945 | -81.49824 | 39044 ft | 597 kts | 53° |
| 2026-05-08 23:58 | 34.62196 | -81.41232 | 39043 ft | 598 kts | 52° |
| 2026-05-08 23:59 | 34.66459 | -81.32593 | 39042 ft | 599 kts | 52° |
| 2026-05-08 23:59 | 34.70679 | -81.24005 | 39041 ft | 587 kts | 52° |
| 2026-05-09 00:00 | 34.74846 | -81.15539 | 39037 ft | 588 kts | 52° |
| 2026-05-09 00:00 | 34.79056 | -81.06933 | 39049 ft | 597 kts | 54° |
| 2026-05-09 00:01 | 34.82620 | -80.97760 | 39046 ft | 609 kts | 61° |
| 2026-05-09 00:01 | 34.85963 | -80.88647 | 39049 ft | 608 kts | 60° |
| 2026-05-09 00:02 | 34.89311 | -80.79596 | 39041 ft | 610 kts | 61° |
| 2026-05-09 00:02 | 34.92769 | -80.70138 | 39041 ft | 616 kts | 61° |
| 2026-05-09 00:03 | 34.96142 | -80.60939 | 39038 ft | 622 kts | 61° |
| 2026-05-09 00:03 | 34.99675 | -80.51232 | 39023 ft | 622 kts | 61° |
| 2026-05-09 00:04 | 35.03185 | -80.41592 | 39032 ft | 622 kts | 61° |
| 2026-05-09 00:04 | 35.06663 | -80.31990 | 39046 ft | 622 kts | 61° |
| 2026-05-09 00:05 | 35.10154 | -80.22337 | 39045 ft | 622 kts | 61° |
| 2026-05-09 00:05 | 35.13643 | -80.12650 | 39041 ft | 623 kts | 61° |
| 2026-05-09 00:06 | 35.17124 | -80.02962 | 39046 ft | 621 kts | 61° |
| 2026-05-09 00:06 | 35.20556 | -79.93375 | 39028 ft | 611 kts | 61° |
| 2026-05-09 00:07 | 35.23964 | -79.83876 | 39019 ft | 609 kts | 61° |
| 2026-05-09 00:07 | 35.27355 | -79.74360 | 39019 ft | 611 kts | 61° |
| 2026-05-09 00:08 | 35.30746 | -79.64833 | 39028 ft | 611 kts | 61° |
| 2026-05-09 00:08 | 35.34134 | -79.55277 | 39038 ft | 611 kts | 61° |
| 2026-05-09 00:09 | 35.37517 | -79.45708 | 39051 ft | 613 kts | 61° |
| 2026-05-09 00:09 | 35.40898 | -79.36116 | 39056 ft | 614 kts | 61° |
| 2026-05-09 00:10 | 35.44276 | -79.26501 | 39050 ft | 614 kts | 61° |
| 2026-05-09 00:10 | 35.47645 | -79.16884 | 39055 ft | 614 kts | 61° |
| 2026-05-09 00:11 | 35.51003 | -79.07267 | 39059 ft | 614 kts | 61° |
| 2026-05-09 00:11 | 35.54361 | -78.97621 | 39053 ft | 615 kts | 61° |
| 2026-05-09 00:12 | 35.57698 | -78.88006 | 39048 ft | 616 kts | 61° |
| 2026-05-09 00:12 | 35.61073 | -78.78248 | 39045 ft | 617 kts | 61° |
| 2026-05-09 00:13 | 35.64420 | -78.68535 | 39030 ft | 619 kts | 61° |
| 2026-05-09 00:13 | 35.67761 | -78.58806 | 39033 ft | 620 kts | 61° |
| 2026-05-09 00:14 | 35.71076 | -78.49125 | 39042 ft | 620 kts | 61° |
| 2026-05-09 00:14 | 35.74284 | -78.39721 | 39035 ft | 620 kts | 61° |
| 2026-05-09 00:15 | 35.77624 | -78.29924 | 39039 ft | 620 kts | 61° |
| 2026-05-09 00:15 | 35.80950 | -78.20121 | 39051 ft | 621 kts | 61° |
| 2026-05-09 00:16 | 35.84277 | -78.10291 | 39051 ft | 621 kts | 61° |
| 2026-05-09 00:16 | 35.87590 | -78.00471 | 39056 ft | 621 kts | 61° |
| 2026-05-09 00:17 | 35.90900 | -77.90622 | 39051 ft | 621 kts | 61° |
| 2026-05-09 00:17 | 35.94205 | -77.80763 | 39055 ft | 621 kts | 61° |
| 2026-05-09 00:18 | 35.97809 | -77.71157 | 39071 ft | 606 kts | 47° |
| 2026-05-09 00:18 | 36.00249 | -77.66988 | 39070 ft | 591 kts | 37° |
| 2026-05-09 00:18 | 36.02986 | -77.63266 | 39059 ft | 586 kts | 36° |
| 2026-05-09 00:19 | 36.08514 | -77.55846 | 39053 ft | 586 kts | 36° |
| 2026-05-09 00:19 | 36.14036 | -77.48427 | 39053 ft | 586 kts | 36° |
| 2026-05-09 00:20 | 36.19551 | -77.40991 | 39044 ft | 586 kts | 36° |
| 2026-05-09 00:20 | 36.25055 | -77.33561 | 39058 ft | 585 kts | 36° |
| 2026-05-09 00:21 | 36.30553 | -77.26121 | 39063 ft | 584 kts | 35° |
| 2026-05-09 00:21 | 36.33450 | -77.22698 | 39074 ft | 571 kts | 28° |
| 2026-05-09 00:21 | 36.36412 | -77.19398 | 39064 ft | 573 kts | 30° |
| 2026-05-09 00:22 | 36.41313 | -77.13882 | 39060 ft | 572 kts | 29° |
| 2026-05-09 00:22 | 36.47221 | -77.07280 | 39051 ft | 571 kts | 29° |
| 2026-05-09 00:23 | 36.54059 | -76.99586 | 39060 ft | 570 kts | 30° |
| 2026-05-09 00:23 | 36.58982 | -76.94049 | 39065 ft | 570 kts | 30° |
| 2026-05-09 00:24 | 36.64841 | -76.87437 | 39061 ft | 570 kts | 30° |
| 2026-05-09 00:24 | 36.70707 | -76.80806 | 39072 ft | 570 kts | 30° |
| 2026-05-09 00:25 | 36.76570 | -76.74161 | 39060 ft | 569 kts | 30° |
| 2026-05-09 00:25 | 36.82350 | -76.67599 | 39064 ft | 568 kts | 30° |
| 2026-05-09 00:26 | 36.88191 | -76.60954 | 39055 ft | 567 kts | 30° |
| 2026-05-09 00:26 | 36.93973 | -76.54359 | 39055 ft | 567 kts | 30° |
| 2026-05-09 00:27 | 36.99717 | -76.47795 | 39040 ft | 566 kts | 30° |
| 2026-05-09 00:27 | 37.05526 | -76.41143 | 39038 ft | 566 kts | 30° |
| 2026-05-09 00:28 | 37.11328 | -76.34484 | 39041 ft | 566 kts | 30° |
| 2026-05-09 00:28 | 37.17125 | -76.27815 | 39041 ft | 566 kts | 30° |
| 2026-05-09 00:29 | 37.22928 | -76.21125 | 39048 ft | 565 kts | 30° |
| 2026-05-09 00:29 | 37.28711 | -76.14446 | 39049 ft | 565 kts | 30° |
| 2026-05-09 00:30 | 37.34491 | -76.07752 | 39066 ft | 564 kts | 30° |
| 2026-05-09 00:30 | 37.40256 | -76.01063 | 39065 ft | 564 kts | 30° |
| 2026-05-09 00:31 | 37.46008 | -75.94374 | 39067 ft | 563 kts | 31° |
| 2026-05-09 00:31 | 37.51747 | -75.87697 | 39053 ft | 559 kts | 28° |
| 2026-05-09 00:31 | 37.54779 | -75.84785 | 39065 ft | 539 kts | 18° |
| 2026-05-09 00:32 | 37.57960 | -75.82372 | 39047 ft | 533 kts | 17° |
| 2026-05-09 00:32 | 37.64336 | -75.77585 | 39051 ft | 533 kts | 17° |
| 2026-05-09 00:33 | 37.70705 | -75.72810 | 39051 ft | 532 kts | 17° |
| 2026-05-09 00:33 | 37.77068 | -75.68023 | 39051 ft | 532 kts | 17° |
| 2026-05-09 00:34 | 37.83387 | -75.63260 | 39049 ft | 532 kts | 17° |
| 2026-05-09 00:34 | 37.89595 | -75.57945 | 39044 ft | 540 kts | 21° |
| 2026-05-09 00:35 | 37.95791 | -75.52576 | 39044 ft | 540 kts | 21° |
| 2026-05-09 00:35 | 37.98058 | -75.50594 | 39043 ft | 540 kts | 21° |
| 2026-05-09 00:36 | 38.01900 | -75.47231 | 39051 ft | 539 kts | 21° |
| 2026-05-09 00:36 | 38.08106 | -75.42000 | 39039 ft | 534 kts | 19° |
| 2026-05-09 00:37 | 38.14370 | -75.36878 | 39042 ft | 535 kts | 19° |
| 2026-05-09 00:37 | 38.20629 | -75.31777 | 39036 ft | 533 kts | 17° |
| 2026-05-09 00:37 | 38.23832 | -75.29586 | 39043 ft | 514 kts | 8° |
| 2026-05-09 00:38 | 38.27117 | -75.28011 | 39043 ft | 497 kts | 0° |
| 2026-05-09 00:38 | 38.30416 | -75.27018 | 39045 ft | 479 kts | 353° |
| 2026-05-09 00:38 | 38.33702 | -75.26333 | 39040 ft | 479 kts | 354° |
| 2026-05-09 00:39 | 38.40273 | -75.24939 | 39043 ft | 479 kts | 353° |
| 2026-05-09 00:39 | 38.46833 | -75.23564 | 39036 ft | 478 kts | 353° |
| 2026-05-09 00:40 | 38.53396 | -75.22184 | 38892 ft | 480 kts | 353° |
| 2026-05-09 00:40 | 38.56668 | -75.21490 | 38736 ft | 471 kts | 353° |
| 2026-05-09 00:40 | 38.59890 | -75.20808 | 38190 ft | 467 kts | 353° |
| 2026-05-09 00:41 | 38.66255 | -75.19362 | 37176 ft | 472 kts | 0° |
| 2026-05-09 00:41 | 38.69416 | -75.18035 | 36692 ft | 484 kts | 8° |
| 2026-05-09 00:41 | 38.72488 | -75.16139 | 36244 ft | 497 kts | 17° |
| 2026-05-09 00:41 | 38.75401 | -75.13667 | 35805 ft | 508 kts | 25° |
| 2026-05-09 00:42 | 38.78190 | -75.10935 | 35308 ft | 502 kts | 24° |
| 2026-05-09 00:42 | 38.80960 | -75.08223 | 34777 ft | 500 kts | 25° |
| 2026-05-09 00:42 | 38.83725 | -75.05514 | 34232 ft | 500 kts | 25° |
| 2026-05-09 00:42 | 38.86484 | -75.02802 | 33635 ft | 499 kts | 26° |
| 2026-05-09 00:43 | 38.89236 | -75.00093 | 33018 ft | 498 kts | 26° |
| 2026-05-09 00:43 | 38.91944 | -74.97429 | 32422 ft | 497 kts | 26° |
| 2026-05-09 00:43 | 38.94674 | -74.94738 | 31827 ft | 492 kts | 27° |
| 2026-05-09 00:43 | 38.97383 | -74.92067 | 31210 ft | 492 kts | 27° |
| 2026-05-09 00:44 | 39.00100 | -74.89391 | 30634 ft | 494 kts | 27° |
| 2026-05-09 00:44 | 39.02836 | -74.86690 | 30052 ft | 496 kts | 27° |
| 2026-05-09 00:44 | 39.05568 | -74.83983 | 29383 ft | 497 kts | 28° |
| 2026-05-09 00:44 | 39.08310 | -74.81265 | 28719 ft | 497 kts | 28° |
| 2026-05-09 00:45 | 39.11000 | -74.78463 | 28084 ft | 500 kts | 32° |
| 2026-05-09 00:45 | 39.13662 | -74.75581 | 27448 ft | 499 kts | 31° |
| 2026-05-09 00:45 | 39.16336 | -74.72726 | 26880 ft | 497 kts | 31° |
| 2026-05-09 00:45 | 39.18942 | -74.69910 | 26635 ft | 483 kts | 31° |
| 2026-05-09 00:46 | 39.21476 | -74.67148 | 26081 ft | 469 kts | 31° |
| 2026-05-09 00:46 | 39.23935 | -74.64482 | 25445 ft | 455 kts | 31° |
| 2026-05-09 00:46 | 39.26325 | -74.61905 | 24837 ft | 442 kts | 31° |
| 2026-05-09 00:46 | 39.28660 | -74.59381 | 24241 ft | 433 kts | 31° |
| 2026-05-09 00:47 | 39.30956 | -74.56891 | 23664 ft | 432 kts | 31° |
| 2026-05-09 00:47 | 39.33253 | -74.54398 | 23001 ft | 429 kts | 31° |
| 2026-05-09 00:47 | 39.35519 | -74.51928 | 22331 ft | 424 kts | 31° |
| 2026-05-09 00:47 | 39.37763 | -74.49484 | 21680 ft | 419 kts | 31° |
| 2026-05-09 00:48 | 39.39976 | -74.47075 | 21221 ft | 410 kts | 31° |
| 2026-05-09 00:48 | 39.42113 | -74.44738 | 20938 ft | 396 kts | 31° |
| 2026-05-09 00:48 | 39.44188 | -74.42475 | 20564 ft | 385 kts | 31° |
| 2026-05-09 00:48 | 39.46216 | -74.40266 | 20196 ft | 376 kts | 31° |
| 2026-05-09 00:49 | 39.48191 | -74.38108 | 19838 ft | 367 kts | 31° |
| 2026-05-09 00:49 | 39.50128 | -74.35992 | 19434 ft | 364 kts | 31° |
| 2026-05-09 00:49 | 39.52087 | -74.33859 | 18757 ft | 368 kts | 31° |
| 2026-05-09 00:49 | 39.54034 | -74.31724 | 18188 ft | 366 kts | 32° |
| 2026-05-09 00:50 | 39.55944 | -74.29617 | 17984 ft | 353 kts | 31° |
| 2026-05-09 00:50 | 39.57801 | -74.27578 | 18005 ft | 351 kts | 31° |
| 2026-05-09 00:50 | 39.59725 | -74.25496 | 18011 ft | 368 kts | 31° |
| 2026-05-09 00:50 | 39.61679 | -74.23350 | 17917 ft | 365 kts | 32° |
| 2026-05-09 00:51 | 39.63609 | -74.21207 | 17254 ft | 367 kts | 32° |
| 2026-05-09 00:51 | 39.65517 | -74.19104 | 16788 ft | 362 kts | 32° |
| 2026-05-09 00:51 | 39.67422 | -74.17011 | 16421 ft | 355 kts | 32° |
| 2026-05-09 00:51 | 39.69297 | -74.14949 | 16107 ft | 353 kts | 32° |
| 2026-05-09 00:52 | 39.71170 | -74.12887 | 15798 ft | 353 kts | 32° |
| 2026-05-09 00:52 | 39.73035 | -74.10828 | 15482 ft | 351 kts | 32° |
| 2026-05-09 00:52 | 39.74892 | -74.08775 | 15171 ft | 349 kts | 32° |
| 2026-05-09 00:52 | 39.76720 | -74.06751 | 15029 ft | 338 kts | 32° |
| 2026-05-09 00:53 | 39.78470 | -74.04807 | 14934 ft | 328 kts | 32° |
| 2026-05-09 00:53 | 39.80236 | -74.02870 | 14579 ft | 333 kts | 32° |
| 2026-05-09 00:53 | 39.81984 | -74.00937 | 14247 ft | 326 kts | 32° |
| 2026-05-09 00:53 | 39.83704 | -73.99030 | 13926 ft | 323 kts | 30° |
| 2026-05-09 00:54 | 39.85587 | -73.97577 | 13597 ft | 312 kts | 18° |
| 2026-05-09 00:54 | 39.87524 | -73.96224 | 13256 ft | 318 kts | 21° |
| 2026-05-09 00:54 | 39.89431 | -73.94817 | 12938 ft | 312 kts | 21° |
| 2026-05-09 00:54 | 39.91338 | -73.93457 | 12612 ft | 315 kts | 20° |
| 2026-05-09 00:55 | 39.93282 | -73.92103 | 12314 ft | 317 kts | 20° |
| 2026-05-09 00:55 | 39.95207 | -73.90742 | 11990 ft | 312 kts | 20° |
| 2026-05-09 00:55 | 39.97125 | -73.89376 | 11681 ft | 316 kts | 20° |
| 2026-05-09 00:55 | 39.99058 | -73.88006 | 11361 ft | 316 kts | 21° |
| 2026-05-09 00:56 | 40.00955 | -73.86653 | 11164 ft | 304 kts | 20° |
| 2026-05-09 00:56 | 40.02802 | -73.85341 | 10948 ft | 306 kts | 20° |
| 2026-05-09 00:56 | 40.04721 | -73.84017 | 10696 ft | 317 kts | 20° |
| 2026-05-09 00:56 | 40.06654 | -73.82710 | 10661 ft | 304 kts | 19° |
| 2026-05-09 00:57 | 40.08518 | -73.81459 | 10842 ft | 302 kts | 19° |
| 2026-05-09 00:57 | 40.10415 | -73.80213 | 11003 ft | 307 kts | 18° |
| 2026-05-09 00:57 | 40.12339 | -73.78979 | 11004 ft | 308 kts | 18° |
| 2026-05-09 00:57 | 40.14265 | -73.77766 | 11004 ft | 306 kts | 18° |
| 2026-05-09 00:58 | 40.16187 | -73.76577 | 11002 ft | 306 kts | 17° |
| 2026-05-09 00:58 | 40.18119 | -73.75407 | 11002 ft | 306 kts | 17° |
| 2026-05-09 00:58 | 40.20056 | -73.74256 | 11004 ft | 306 kts | 16° |
| 2026-05-09 00:58 | 40.22000 | -73.73125 | 11006 ft | 306 kts | 15° |
| 2026-05-09 00:59 | 40.23948 | -73.72015 | 11006 ft | 305 kts | 15° |
| 2026-05-09 00:59 | 40.25897 | -73.70926 | 11007 ft | 305 kts | 15° |
| 2026-05-09 00:59 | 40.27854 | -73.69856 | 11012 ft | 304 kts | 14° |
| 2026-05-09 00:59 | 40.29812 | -73.68809 | 11012 ft | 304 kts | 14° |
| 2026-05-09 01:00 | 40.31802 | -73.67772 | 10576 ft | 308 kts | 13° |
| 2026-05-09 01:00 | 40.33756 | -73.66772 | 10068 ft | 305 kts | 13° |
| 2026-05-09 01:00 | 40.35724 | -73.65788 | 9547 ft | 305 kts | 13° |
| 2026-05-09 01:00 | 40.37729 | -73.64806 | 8940 ft | 299 kts | 13° |
| 2026-05-09 01:01 | 40.39666 | -73.63875 | 8356 ft | 293 kts | 12° |
| 2026-05-09 01:01 | 40.41559 | -73.62981 | 7786 ft | 286 kts | 12° |
| 2026-05-09 01:01 | 40.43371 | -73.62137 | 7277 ft | 273 kts | 12° |
| 2026-05-09 01:01 | 40.45112 | -73.61290 | 6745 ft | 263 kts | 15° |
| 2026-05-09 01:02 | 40.46714 | -73.60173 | 6183 ft | 258 kts | 24° |
| 2026-05-09 01:02 | 40.48233 | -73.58962 | 5629 ft | 252 kts | 26° |
| 2026-05-09 01:02 | 40.49714 | -73.57781 | 5076 ft | 248 kts | 26° |
| 2026-05-09 01:02 | 40.51192 | -73.56636 | 4513 ft | 244 kts | 26° |
| 2026-05-09 01:03 | 40.52646 | -73.55535 | 4040 ft | 237 kts | 25° |
| 2026-05-09 01:03 | 40.54022 | -73.54504 | 4009 ft | 219 kts | 25° |
| 2026-05-09 01:03 | 40.55314 | -73.53531 | 4012 ft | 211 kts | 25° |
| 2026-05-09 01:03 | 40.56587 | -73.52574 | 4014 ft | 210 kts | 25° |
| 2026-05-09 01:04 | 40.57846 | -73.51601 | 4012 ft | 210 kts | 26° |
| 2026-05-09 01:04 | 40.58689 | -73.50924 | 4011 ft | 210 kts | 27° |
| 2026-05-09 01:04 | 40.60319 | -73.49548 | 3994 ft | 213 kts | 34° |
| 2026-05-09 01:04 | 40.61024 | -73.47853 | 3967 ft | 218 kts | 82° |
| 2026-05-09 01:05 | 40.60730 | -73.45928 | 4007 ft | 217 kts | 114° |
| 2026-05-09 01:05 | 40.60099 | -73.44115 | 4031 ft | 217 kts | 117° |
| 2026-05-09 01:05 | 40.58452 | -73.40900 | 3806 ft | 210 kts | 158° |
| 2026-05-09 01:06 | 40.57087 | -73.40752 | 3588 ft | 195 kts | 198° |
| 2026-05-09 01:06 | 40.55859 | -73.41445 | 3441 ft | 190 kts | 216° |
| 2026-05-09 01:06 | 40.55192 | -73.42866 | 3211 ft | 186 kts | 258° |
| 2026-05-09 01:06 | 40.55087 | -73.44556 | 3087 ft | 185 kts | 267° |
| 2026-05-09 01:07 | 40.55018 | -73.46235 | 3030 ft | 183 kts | 267° |
| 2026-05-09 01:07 | 40.54946 | -73.47920 | 3029 ft | 185 kts | 267° |
| 2026-05-09 01:07 | 40.54873 | -73.49607 | 3025 ft | 184 kts | 267° |
| 2026-05-09 01:07 | 40.54801 | -73.51296 | 3028 ft | 186 kts | 267° |
| 2026-05-09 01:08 | 40.54729 | -73.52994 | 3028 ft | 186 kts | 267° |
| 2026-05-09 01:08 | 40.54882 | -73.54657 | 2981 ft | 186 kts | 289° |
| 2026-05-09 01:08 | 40.55442 | -73.56147 | 3015 ft | 177 kts | 296° |
| 2026-05-09 01:08 | 40.55837 | -73.57068 | 3001 ft | 174 kts | 298° |
| 2026-05-09 01:09 | 40.56649 | -73.58890 | 2994 ft | 172 kts | 299° |
| 2026-05-09 01:09 | 40.57266 | -73.60256 | 2814 ft | 177 kts | 299° |
| 2026-05-09 01:09 | 40.57883 | -73.61620 | 2559 ft | 171 kts | 299° |
| 2026-05-09 01:09 | 40.58478 | -73.62934 | 2348 ft | 164 kts | 300° |
| 2026-05-09 01:10 | 40.58863 | -73.63783 | 2185 ft | 163 kts | 300° |
| 2026-05-09 01:10 | 40.59625 | -73.65468 | 1897 ft | 158 kts | 300° |
| 2026-05-09 01:10 | 40.60182 | -73.66698 | 1710 ft | 160 kts | 300° |
| 2026-05-09 01:10 | 40.60766 | -73.67986 | 1472 ft | 161 kts | 300° |
| 2026-05-09 01:11 | 40.61151 | -73.68823 | 1327 ft | 162 kts | 301° |
| 2026-05-09 01:11 | 40.61687 | -73.70005 | 1115 ft | 164 kts | 300° |
| 2026-05-09 01:11 | 40.62264 | -73.71283 | 895 ft | 160 kts | 300° |
| 2026-05-09 01:11 | 40.62805 | -73.72476 | 680 ft | 152 kts | 300° |
| 2026-05-09 01:12 | 40.63354 | -73.73688 | 475 ft | 152 kts | 301° |
| 2026-05-09 01:12 | 40.63893 | -73.74870 | 283 ft | 150 kts | 301° |
| 2026-05-09 01:12 | 40.64428 | -73.76056 | 103 ft | 150 kts | 302° |
| 2026-05-09 01:12 | 40.64935 | -73.77176 | 28 ft | 135 kts | 300° |
| 2026-05-09 01:13 | 40.65357 | -73.78097 | 29 ft | 94 kts | 301° |
| 2026-05-09 01:13 | 40.65584 | -73.78598 | 26 ft | 29 kts | 300° |
| 2026-05-09 01:13 | 40.65581 | -73.78743 | 27 ft | 8 kts | 212° |
| 2026-05-09 01:13 | 40.65543 | -73.78749 | 25 ft | 4 kts | 159° |
| 2026-05-09 01:14 | 40.65500 | -73.78692 | 24 ft | 18 kts | 128° |
| 2026-05-09 01:14 | 40.65396 | -73.78526 | 27 ft | 29 kts | 150° |
| 2026-05-09 01:14 | 40.65262 | -73.78396 | 21 ft | 19 kts | 107° |
| 2026-05-09 01:14 | 40.65199 | -73.78230 | 21 ft | 21 kts | 120° |
| 2026-05-09 01:15 | 40.65125 | -73.78066 | 21 ft | 21 kts | 121° |
| 2026-05-09 01:15 | 40.65058 | -73.77916 | 21 ft | 21 kts | 121° |
| 2026-05-09 01:15 | 40.64977 | -73.77741 | 21 ft | 21 kts | 121° |
| 2026-05-09 01:15 | 40.64903 | -73.77577 | 21 ft | 22 kts | 120° |
| 2026-05-09 01:16 | 40.64826 | -73.77407 | 21 ft | 21 kts | 121° |
| 2026-05-09 01:16 | 40.64750 | -73.77240 | 21 ft | 21 kts | 121° |
| 2026-05-09 01:16 | 40.64663 | -73.77108 | 21 ft | 19 kts | 153° |
| 2026-05-09 01:17 | 40.64416 | -73.77118 | 21 ft | 18 kts | 206° |
| 2026-05-09 01:17 | 40.64307 | -73.77203 | 21 ft | 19 kts | 212° |
| 2026-05-09 01:17 | 40.64192 | -73.77293 | 23 ft | 20 kts | 211° |
| 2026-05-09 01:17 | 40.64082 | -73.77381 | 21 ft | 16 kts | 222° |
| 2026-05-09 01:18 | 40.64063 | -73.77430 | 21 ft | 0 kts | 269° |
| 2026-05-09 01:18 | 40.64070 | -73.77444 | 21 ft | 5 kts | 308° |
| 2026-05-09 01:18 | 40.64121 | -73.77504 | 21 ft | 13 kts | 321° |
| 2026-05-09 01:18 | 40.64207 | -73.77572 | 21 ft | 16 kts | 331° |
| 2026-05-09 01:19 | 40.64301 | -73.77641 | 21 ft | 16 kts | 331° |
| 2026-05-09 01:19 | 40.64389 | -73.77718 | 21 ft | 14 kts | 315° |
| 2026-05-09 01:19 | 40.64418 | -73.77771 | 23 ft | 0 kts | 303° |
| 2026-05-09 01:20 | 40.64420 | -73.77775 | 23 ft | 2 kts | 302° |
| 2026-05-09 01:20 | 40.64425 | -73.77792 | 22 ft | 2 kts | 285° |
| 2026-05-09 01:20 | 40.64425 | -73.77829 | 21 ft | 6 kts | 263° |
| 2026-05-09 01:20 | 40.64409 | -73.77872 | 21 ft | 6 kts | 241° |
| 2026-05-09 01:21 | 40.64398 | -73.77898 | 21 ft | 1 kts | 240° |
| 2026-05-09 01:21 | 40.64393 | -73.77908 | 21 ft | 2 kts | 240° |
| 2026-05-09 01:21 | 40.64388 | -73.77920 | 21 ft | 0 kts | 240° |